createdAt,value
2022-11-03T00:02:41.378Z,7.40
2022-11-03T00:06:03.614Z,6.30
2022-11-03T00:09:08.541Z,5.50
2022-11-03T00:12:11.832Z,5.23
2022-11-03T00:15:14.551Z,6.63
2022-11-03T00:18:17.763Z,6.23
2022-11-03T00:21:22.685Z,5.73
2022-11-03T00:24:25.389Z,5.03
2022-11-03T00:27:28.423Z,4.50
2022-11-03T00:30:31.152Z,4.50
2022-11-03T00:33:34.672Z,4.60
2022-11-03T00:36:40.786Z,5.00
2022-11-03T00:39:43.517Z,4.20
2022-11-03T00:42:46.625Z,4.33
2022-11-03T00:45:49.350Z,4.37
2022-11-03T00:48:53.067Z,4.20
2022-11-03T00:51:57.462Z,5.13
2022-11-03T00:55:00.238Z,4.67
2022-11-03T00:58:03.574Z,5.30
2022-11-03T01:01:08.857Z,5.70
2022-11-03T01:04:29.309Z,4.63
2022-11-03T01:07:33.889Z,5.43
2022-11-03T01:11:00.225Z,6.00
2022-11-03T01:14:04.068Z,6.33
2022-11-03T01:17:07.357Z,5.63
2022-11-03T01:20:10.709Z,5.30
2022-11-03T01:23:15.630Z,4.90
2022-11-03T01:26:19.235Z,4.80
2022-11-03T01:29:22.022Z,5.37
2022-11-03T01:32:24.710Z,4.50
2022-11-03T01:35:27.862Z,6.10
2022-11-03T01:38:34.965Z,5.23
2022-11-03T01:41:39.035Z,5.40
2022-11-03T01:44:47.393Z,4.97
2022-11-03T01:47:50.645Z,4.50
2022-11-03T01:50:53.968Z,4.70
2022-11-03T01:54:00.502Z,4.63
2022-11-03T01:57:07.868Z,4.90
2022-11-03T02:00:11.746Z,5.23
2022-11-03T02:03:16.124Z,5.20
2022-11-03T02:06:20.602Z,4.53
2022-11-03T02:09:25.390Z,4.83
2022-11-03T02:12:28.499Z,2.93
2022-11-03T02:15:33.248Z,4.10
2022-11-03T02:18:36.247Z,4.20
2022-11-03T02:21:50.379Z,3.90
2022-11-03T02:25:00.892Z,4.73
2022-11-03T02:28:07.467Z,5.10
2022-11-03T02:31:17.424Z,5.50
2022-11-03T02:34:28.278Z,5.77
2022-11-03T02:37:36.193Z,5.37
2022-11-03T02:40:45.868Z,4.70
2022-11-03T02:43:50.710Z,5.83
2022-11-03T02:47:01.912Z,5.27
2022-11-03T02:50:10.317Z,4.90
2022-11-03T02:53:14.487Z,3.70
2022-11-03T02:56:21.119Z,4.70
2022-11-03T02:59:28.145Z,4.50
2022-11-03T03:02:37.208Z,4.57
2022-11-03T03:05:42.037Z,2.90
2022-11-03T03:08:48.806Z,3.40
2022-11-03T03:11:54.748Z,3.70
2022-11-03T03:15:00.589Z,4.40
2022-11-03T03:18:13.794Z,5.13
2022-11-03T03:21:20.471Z,4.93
2022-11-03T03:24:32.450Z,4.73
2022-11-03T03:27:37.978Z,4.33
2022-11-03T03:30:43.571Z,4.70
2022-11-03T03:33:48.556Z,3.50
2022-11-03T03:36:52.503Z,2.80
2022-11-03T03:40:01.119Z,4.60
2022-11-03T03:43:07.769Z,1.13
2022-11-03T03:46:13.859Z,2.73
2022-11-03T03:49:16.627Z,3.50
2022-11-03T03:52:20.320Z,3.47
2022-11-03T03:55:28.672Z,3.90
2022-11-03T03:58:31.387Z,4.20
2022-11-03T04:01:36.114Z,4.70
2022-11-03T04:04:39.715Z,4.07
2022-11-03T04:07:48.470Z,5.43
2022-11-03T04:11:05.088Z,5.17
2022-11-03T04:14:25.504Z,5.20
2022-11-03T04:21:08.551Z,3.47
2022-11-03T04:24:11.555Z,3.27
2022-11-03T04:27:27.881Z,3.83
2022-11-03T04:30:30.810Z,5.50
2022-11-03T04:33:35.282Z,4.60
2022-11-03T04:36:38.000Z,3.77
2022-11-03T04:39:41.496Z,3.87
2022-11-03T04:42:44.831Z,3.67
2022-11-03T04:45:49.282Z,3.73
2022-11-03T04:48:53.937Z,3.07
2022-11-03T04:51:56.959Z,2.50
2022-11-03T04:54:59.683Z,3.30
2022-11-03T04:58:12.105Z,3.27
2022-11-03T05:01:22.463Z,4.30
2022-11-03T05:04:27.974Z,4.70
2022-11-03T05:07:35.620Z,4.33
2022-11-03T05:10:38.663Z,4.77
2022-11-03T05:13:42.077Z,1.70
2022-11-03T05:16:45.947Z,3.70
2022-11-03T05:19:51.373Z,2.67
2022-11-03T05:22:54.457Z,6.57
2022-11-03T05:25:59.786Z,5.60
2022-11-03T05:29:04.614Z,3.80
2022-11-03T05:32:13.086Z,4.13
2022-11-03T05:35:22.256Z,4.93
2022-11-03T05:38:25.017Z,4.37
2022-11-03T05:41:30.450Z,4.40
2022-11-03T05:44:36.819Z,2.07
2022-11-03T05:47:41.247Z,4.03
2022-11-03T05:50:45.575Z,3.07
2022-11-03T05:53:50.963Z,5.60
2022-11-03T05:56:55.033Z,4.07
2022-11-03T05:59:58.286Z,4.57
2022-11-03T06:03:01.941Z,4.80
2022-11-03T06:06:16.665Z,4.27
2022-11-03T06:09:22.654Z,6.30
2022-11-03T06:12:27.159Z,4.20
2022-11-03T06:15:32.327Z,4.10
2022-11-03T06:18:37.327Z,5.23
2022-11-03T06:21:44.536Z,4.90
2022-11-03T06:24:48.331Z,3.80
2022-11-03T06:27:52.373Z,3.73
2022-11-03T06:30:55.119Z,5.07
2022-11-03T06:33:58.687Z,3.80
2022-11-03T06:37:14.625Z,4.53
2022-11-03T06:40:36.026Z,4.07
2022-11-03T06:43:42.194Z,4.97
2022-11-03T06:46:45.101Z,3.77
2022-11-03T06:49:48.935Z,4.60
2022-11-03T06:52:55.612Z,3.93
2022-11-03T06:55:58.984Z,4.20
2022-11-03T06:59:02.072Z,4.10
2022-11-03T07:02:18.879Z,4.33
2022-11-03T07:05:24.642Z,5.37
2022-11-03T07:08:32.553Z,5.40
2022-11-03T07:11:46.193Z,5.93
2022-11-03T07:14:48.902Z,5.30
2022-11-03T07:17:52.265Z,4.30
2022-11-03T07:20:56.894Z,3.60
2022-11-03T07:24:04.334Z,4.20
2022-11-03T07:27:16.510Z,2.53
2022-11-03T07:30:21.601Z,2.90
2022-11-03T07:33:27.760Z,3.30
2022-11-03T07:36:33.251Z,4.27
2022-11-03T07:39:39.430Z,4.53
2022-11-03T07:42:42.437Z,2.33
2022-11-03T07:45:49.077Z,3.60
2022-11-03T07:48:54.482Z,3.97
2022-11-03T07:51:58.401Z,4.23
2022-11-03T07:55:02.503Z,2.93
2022-11-03T07:58:26.502Z,3.50
2022-11-03T08:01:32.614Z,3.20
2022-11-03T08:04:36.550Z,3.50
2022-11-03T08:07:39.396Z,3.87
2022-11-03T08:10:43.414Z,3.77
2022-11-03T08:13:46.066Z,4.83
2022-11-03T08:16:48.936Z,3.90
2022-11-03T08:19:51.787Z,4.50
2022-11-03T08:23:19.726Z,1.63
2022-11-03T08:26:18.545Z,4.43
2022-11-03T08:29:21.523Z,5.10
2022-11-03T08:32:24.332Z,2.17
2022-11-03T08:35:30.080Z,5.80
2022-11-03T08:38:36.040Z,4.03
2022-11-03T08:41:40.302Z,5.50
2022-11-03T08:44:42.999Z,6.00
2022-11-03T08:47:46.489Z,6.20
2022-11-03T08:50:50.425Z,4.60
2022-11-03T08:53:54.115Z,5.17
2022-11-03T08:56:58.243Z,6.77
2022-11-03T09:00:00.944Z,6.50
2022-11-03T09:03:03.770Z,5.80
2022-11-03T09:06:07.017Z,7.90
2022-11-03T09:12:33.757Z,8.17
2022-11-03T09:15:36.512Z,6.47
2022-11-03T09:18:39.246Z,6.93
2022-11-03T09:21:42.669Z,7.20
2022-11-03T09:24:45.406Z,8.13
2022-11-03T09:27:49.460Z,2.27
2022-11-03T09:30:52.144Z,5.80
2022-11-03T09:33:55.343Z,6.87
2022-11-03T09:36:59.302Z,7.23
2022-11-03T09:40:02.213Z,7.07
2022-11-03T09:43:06.618Z,4.73
2022-11-03T09:46:09.610Z,4.80
2022-11-03T09:49:15.816Z,4.87
2022-11-03T09:52:22.534Z,4.80
2022-11-03T09:55:27.260Z,3.00
2022-11-03T09:58:32.949Z,7.20
2022-11-03T10:01:35.883Z,7.40
2022-11-03T10:04:38.699Z,4.33
2022-11-03T10:07:43.546Z,6.40
2022-11-03T10:10:46.303Z,5.30
2022-11-03T10:13:54.627Z,7.63
2022-11-03T10:17:00.310Z,4.37
2022-11-03T10:20:07.176Z,8.23
2022-11-03T10:23:10.026Z,6.57
2022-11-03T10:26:16.391Z,6.97
2022-11-03T10:29:23.748Z,1.80
2022-11-03T10:32:34.492Z,6.53
2022-11-03T10:35:37.565Z,5.33
2022-11-03T10:38:40.266Z,7.43
2022-11-03T10:41:57.541Z,7.13
2022-11-03T10:45:15.681Z,7.13
2022-11-03T10:48:18.424Z,7.63
2022-11-03T10:51:21.128Z,5.20
2022-11-03T10:54:26.167Z,4.40
2022-11-03T10:57:29.601Z,6.70
2022-11-03T11:00:34.366Z,7.13
2022-11-03T11:03:42.696Z,7.67
2022-11-03T11:06:46.159Z,3.07
2022-11-03T11:09:49.524Z,6.23
2022-11-03T11:13:25.955Z,6.00
2022-11-03T11:16:51.780Z,5.50
2022-11-03T11:20:43.369Z,7.83
2022-11-03T11:23:47.196Z,6.43
2022-11-03T11:26:50.794Z,7.63
2022-11-03T11:29:53.549Z,6.23
2022-11-03T11:33:02.207Z,6.60
2022-11-03T11:36:20.189Z,9.40
2022-11-03T11:39:44.712Z,7.20
2022-11-03T11:43:24.650Z,3.90
2022-11-03T11:46:41.187Z,9.67
2022-11-03T11:49:45.378Z,8.37
2022-11-03T11:52:51.990Z,9.73
2022-11-03T11:55:57.805Z,9.60
2022-11-03T11:59:00.614Z,10.63
2022-11-03T12:02:04.689Z,6.63
2022-11-03T12:05:20.823Z,7.80
2022-11-03T12:08:29.828Z,5.70
2022-11-03T12:11:45.823Z,8.27
2022-11-03T12:14:49.641Z,10.87
2022-11-03T12:17:52.490Z,5.87
2022-11-03T12:20:56.880Z,6.97
2022-11-03T12:23:59.581Z,8.10
2022-11-03T12:27:03.113Z,8.03
2022-11-03T12:30:12.522Z,7.33
2022-11-03T12:33:15.168Z,6.17
2022-11-03T12:36:19.256Z,10.90
2022-11-03T12:39:21.928Z,10.33
2022-11-03T12:42:25.286Z,7.60
2022-11-03T12:45:28.259Z,7.50
2022-11-03T12:48:30.930Z,6.93
2022-11-03T12:51:35.078Z,2.90
2022-11-03T12:54:37.840Z,6.60
2022-11-03T12:57:40.523Z,8.47
2022-11-03T13:00:48.082Z,5.57
2022-11-03T13:03:56.683Z,9.27
2022-11-03T13:07:00.821Z,9.37
2022-11-03T13:10:05.049Z,15.13
2022-11-03T13:13:08.182Z,10.33
2022-11-03T13:16:11.394Z,11.13
2022-11-03T13:19:14.144Z,9.70
2022-11-03T13:22:18.187Z,9.90
2022-11-03T13:25:21.342Z,9.37
2022-11-03T13:28:24.079Z,9.97
2022-11-03T13:31:27.478Z,9.60
2022-11-03T13:34:30.777Z,9.60
2022-11-03T13:37:34.832Z,9.13
2022-11-03T13:44:00.561Z,7.33
2022-11-03T13:47:05.503Z,8.40
2022-11-03T13:50:14.502Z,7.77
2022-11-03T14:00:06.014Z,7.20
2022-11-03T14:06:31.841Z,11.27
2022-11-03T14:12:39.804Z,7.23
2022-11-03T14:15:42.811Z,7.50
2022-11-03T14:18:45.490Z,8.27
2022-11-03T14:21:48.259Z,4.70
2022-11-03T14:24:53.607Z,5.33
2022-11-03T14:27:56.294Z,8.63
2022-11-03T14:31:02.065Z,10.17
2022-11-03T14:34:05.122Z,6.87
2022-11-03T14:37:09.108Z,9.63
2022-11-03T14:40:34.277Z,8.30
2022-11-03T14:43:36.021Z,4.13
2022-11-03T14:46:38.818Z,7.53
2022-11-03T14:49:41.843Z,9.70
2022-11-03T14:52:44.605Z,8.30
2022-11-03T14:55:48.681Z,9.40
2022-11-03T14:58:51.560Z,7.80
2022-11-03T15:01:55.504Z,7.77
2022-11-03T15:04:58.529Z,7.87
2022-11-03T15:08:01.337Z,8.83
2022-11-03T15:11:08.139Z,9.33
2022-11-03T15:14:11.702Z,7.80
2022-11-03T15:17:14.407Z,7.57
2022-11-03T15:20:17.362Z,7.10
2022-11-03T15:26:44.488Z,7.97
2022-11-03T15:29:47.184Z,9.23
2022-11-03T15:32:50.157Z,7.77
2022-11-03T15:35:52.997Z,8.90
2022-11-03T15:38:55.883Z,8.67
2022-11-03T15:42:00.410Z,11.87
2022-11-03T15:45:03.702Z,20.93
2022-11-03T15:48:06.978Z,13.93
2022-11-03T15:51:10.354Z,6.30
2022-11-03T15:54:13.030Z,9.93
2022-11-03T15:57:17.083Z,9.03
2022-11-03T16:00:20.544Z,10.17
2022-11-03T16:03:23.468Z,8.80
2022-11-03T16:06:46.714Z,11.57
2022-11-03T16:09:49.364Z,10.90
2022-11-03T16:12:53.525Z,8.97
2022-11-03T16:15:56.206Z,8.97
2022-11-03T16:18:58.937Z,8.10
2022-11-03T16:22:01.945Z,7.50
2022-11-03T16:25:07.477Z,9.47
2022-11-03T16:28:16.060Z,8.13
2022-11-03T16:31:18.885Z,10.60
2022-11-03T16:34:21.963Z,9.80
2022-11-03T16:37:27.457Z,11.23
2022-11-03T16:40:30.166Z,12.30
2022-11-03T16:43:34.235Z,16.33
2022-11-03T16:46:36.959Z,12.67
2022-11-03T16:49:41.801Z,21.37
2022-11-03T16:52:44.994Z,22.20
2022-11-03T16:55:49.501Z,11.10
2022-11-03T16:58:53.746Z,11.00
2022-11-03T17:01:56.945Z,10.93
2022-11-03T17:04:59.776Z,10.40
2022-11-03T17:08:03.233Z,13.73
2022-11-03T17:11:06.160Z,15.13
2022-11-03T17:14:13.735Z,17.30
2022-11-03T17:17:16.656Z,13.07
2022-11-03T17:20:19.377Z,13.43
2022-11-03T17:23:22.080Z,14.90
2022-11-03T17:26:29.711Z,13.07
2022-11-03T17:29:36.719Z,16.37
2022-11-03T17:32:42.146Z,12.43
2022-11-03T17:35:46.670Z,20.37
2022-11-03T17:38:49.412Z,18.53
2022-11-03T17:41:52.191Z,20.70
2022-11-03T17:44:57.812Z,13.93
2022-11-03T17:48:00.579Z,11.30
2022-11-03T17:51:07.685Z,11.10
2022-11-03T17:54:16.819Z,12.70
2022-11-03T17:57:22.322Z,19.40
2022-11-03T18:00:26.461Z,13.23
2022-11-03T18:03:29.457Z,9.37
2022-11-03T18:06:32.190Z,10.43
2022-11-03T18:09:35.101Z,16.60
2022-11-03T18:12:58.347Z,9.73
2022-11-03T18:16:07.177Z,15.37
2022-11-03T18:19:12.819Z,12.77
2022-11-03T18:22:15.640Z,16.70
2022-11-03T18:25:21.221Z,24.27
2022-11-03T18:28:24.538Z,18.90
2022-11-03T18:31:36.203Z,16.80
2022-11-03T18:34:39.034Z,16.23
2022-11-03T18:37:44.124Z,12.50
2022-11-03T18:40:47.426Z,14.07
2022-11-03T18:43:50.398Z,12.23
2022-11-03T18:46:55.599Z,12.40
2022-11-03T18:49:58.534Z,10.73
2022-11-03T18:53:01.314Z,10.13
2022-11-03T18:56:04.476Z,9.37
2022-11-03T18:59:07.696Z,8.07
2022-11-03T19:02:18.824Z,7.97
2022-11-03T19:05:21.645Z,9.10
2022-11-03T19:08:28.035Z,13.00
2022-11-03T19:11:30.835Z,14.80
2022-11-03T19:14:36.878Z,16.17
2022-11-03T19:17:40.963Z,17.53
2022-11-03T19:20:43.671Z,11.23
2022-11-03T19:23:48.137Z,9.50
2022-11-03T19:26:58.117Z,13.00
2022-11-03T19:30:02.233Z,9.70
2022-11-03T19:33:07.456Z,11.27
2022-11-03T19:36:10.799Z,8.13
2022-11-03T19:39:18.591Z,11.53
2022-11-03T19:42:31.287Z,9.50
2022-11-03T19:45:34.112Z,10.37
2022-11-03T19:48:38.870Z,10.20
2022-11-03T19:51:42.087Z,14.70
2022-11-03T19:54:47.734Z,12.40
2022-11-03T19:57:50.429Z,11.90
2022-11-03T20:00:54.306Z,9.13
2022-11-03T20:03:58.389Z,11.43
2022-11-03T20:07:02.772Z,10.57
2022-11-03T20:10:06.458Z,7.93
2022-11-03T20:13:10.726Z,10.30
2022-11-03T20:16:14.960Z,10.27
2022-11-03T20:19:19.082Z,10.33
2022-11-03T20:22:28.649Z,9.13
2022-11-03T20:25:35.328Z,11.03
2022-11-03T20:28:39.121Z,11.07
2022-11-03T20:31:42.155Z,8.37
2022-11-03T20:34:46.954Z,8.97
2022-11-03T20:37:51.807Z,6.43
2022-11-03T20:40:58.880Z,7.90
2022-11-03T20:44:02.170Z,10.67
2022-11-03T20:47:05.232Z,19.47
2022-11-03T20:50:10.510Z,17.13
2022-11-03T20:53:16.721Z,12.77
2022-11-03T20:56:20.978Z,12.23
2022-11-03T20:59:24.720Z,12.10
2022-11-03T21:02:28.326Z,13.07
2022-11-03T21:05:32.475Z,11.57
2022-11-03T21:08:35.612Z,9.50
2022-11-03T21:11:40.485Z,8.10
2022-11-03T21:15:05.213Z,10.03
2022-11-03T21:18:27.796Z,10.37
2022-11-03T21:21:31.796Z,9.33
2022-11-03T21:24:34.468Z,11.97
2022-11-03T21:27:39.300Z,18.07
2022-11-03T21:30:45.215Z,11.67
2022-11-03T21:33:47.911Z,11.43
2022-11-03T21:36:51.910Z,12.67
2022-11-03T21:39:54.701Z,13.40
2022-11-03T21:43:14.921Z,12.50
2022-11-03T21:46:17.762Z,13.13
2022-11-03T21:49:38.321Z,14.80
2022-11-03T21:52:42.502Z,15.63
2022-11-03T21:55:48.468Z,15.13
2022-11-03T21:58:51.162Z,17.00
2022-11-03T22:01:55.096Z,12.83
2022-11-03T22:04:58.726Z,17.17
2022-11-03T22:08:03.249Z,14.30
2022-11-03T22:11:22.454Z,10.67
2022-11-03T22:14:26.663Z,12.53
2022-11-03T22:17:28.646Z,13.40
2022-11-03T22:20:48.706Z,11.50
2022-11-03T22:24:10.223Z,13.33
2022-11-03T22:27:13.481Z,13.43
2022-11-03T22:30:33.644Z,12.17
2022-11-03T22:33:56.812Z,15.03
2022-11-03T22:36:58.622Z,16.30
2022-11-03T22:40:20.573Z,13.93
2022-11-03T22:43:41.278Z,13.23
2022-11-03T22:46:44.571Z,15.10
2022-11-03T22:49:47.870Z,14.37
2022-11-03T22:52:50.856Z,13.60
2022-11-03T22:55:54.319Z,13.23
2022-11-03T22:58:57.301Z,19.77
2022-11-03T23:02:00.029Z,13.53
2022-11-03T23:05:04.787Z,14.50
2022-11-03T23:08:07.632Z,14.20
2022-11-03T23:11:16.322Z,13.87
2022-11-03T23:14:20.864Z,12.97
2022-11-03T23:17:44.195Z,13.63
2022-11-03T23:21:05.193Z,13.20
2022-11-03T23:24:26.129Z,12.77
2022-11-03T23:27:30.446Z,12.87
2022-11-03T23:30:33.116Z,11.90
2022-11-03T23:33:36.844Z,11.63
2022-11-03T23:36:39.949Z,13.80
2022-11-03T23:39:42.644Z,12.37
2022-11-03T23:42:46.747Z,12.70
2022-11-03T23:46:12.115Z,11.40
2022-11-03T23:49:15.559Z,11.37
2022-11-03T23:52:18.276Z,10.67
2022-11-03T23:55:21.204Z,8.43
2022-11-03T23:58:24.266Z,11.70
